sensor_id;sensor_type;location;lat;lon;timestamp;P1;durP1;ratioP1;P2;durP2;ratioP2
21334;SDS011;69435;52.670;13.544;2024-02-26T00:02:36;8.00;;;7.07;;
21334;SDS011;69435;52.670;13.544;2024-02-26T00:05:26;11.60;;;7.70;;
21334;SDS011;69435;52.670;13.544;2024-02-26T00:08:12;8.87;;;7.63;;
21334;SDS011;69435;52.670;13.544;2024-02-26T00:10:58;11.73;;;7.93;;
21334;SDS011;69435;52.670;13.544;2024-02-26T00:13:44;9.37;;;8.07;;
21334;SDS011;69435;52.670;13.544;2024-02-26T00:16:31;8.63;;;7.73;;
21334;SDS011;69435;52.670;13.544;2024-02-26T00:19:17;9.47;;;7.60;;
21334;SDS011;69435;52.670;13.544;2024-02-26T00:22:03;9.33;;;7.53;;
21334;SDS011;69435;52.670;13.544;2024-02-26T00:24:49;12.13;;;7.43;;
21334;SDS011;69435;52.670;13.544;2024-02-26T00:27:35;12.60;;;8.33;;
21334;SDS011;69435;52.670;13.544;2024-02-26T00:30:21;11.53;;;7.80;;
21334;SDS011;69435;52.670;13.544;2024-02-26T00:33:08;11.33;;;8.53;;
21334;SDS011;69435;52.670;13.544;2024-02-26T00:35:54;11.27;;;8.13;;
21334;SDS011;69435;52.670;13.544;2024-02-26T00:38:40;8.93;;;7.77;;
21334;SDS011;69435;52.670;13.544;2024-02-26T00:41:28;13.67;;;7.87;;
21334;SDS011;69435;52.670;13.544;2024-02-26T00:44:14;8.70;;;7.57;;
21334;SDS011;69435;52.670;13.544;2024-02-26T00:47:00;8.60;;;7.10;;
21334;SDS011;69435;52.670;13.544;2024-02-26T00:49:47;10.57;;;7.33;;
21334;SDS011;69435;52.670;13.544;2024-02-26T00:52:34;8.13;;;7.30;;
21334;SDS011;69435;52.670;13.544;2024-02-26T00:55:20;9.63;;;7.73;;
21334;SDS011;69435;52.670;13.544;2024-02-26T00:58:06;8.33;;;7.53;;
21334;SDS011;69435;52.670;13.544;2024-02-26T01:00:52;9.97;;;7.47;;
21334;SDS011;69435;52.670;13.544;2024-02-26T01:03:38;9.03;;;8.00;;
21334;SDS011;69435;52.670;13.544;2024-02-26T01:06:25;9.50;;;7.73;;
21334;SDS011;69435;52.670;13.544;2024-02-26T01:09:11;7.47;;;6.73;;
21334;SDS011;69435;52.670;13.544;2024-02-26T01:11:57;7.97;;;7.17;;
21334;SDS011;69435;52.670;13.544;2024-02-26T01:14:43;11.40;;;7.97;;
21334;SDS011;69435;52.670;13.544;2024-02-26T01:17:29;7.37;;;6.47;;
21334;SDS011;69435;52.670;13.544;2024-02-26T01:20:15;9.43;;;6.83;;
21334;SDS011;69435;52.670;13.544;2024-02-26T01:23:01;8.37;;;7.47;;
21334;SDS011;69435;52.670;13.544;2024-02-26T01:25:47;7.57;;;6.47;;
21334;SDS011;69435;52.670;13.544;2024-02-26T01:28:33;8.03;;;7.23;;
21334;SDS011;69435;52.670;13.544;2024-02-26T01:31:19;9.40;;;7.27;;
21334;SDS011;69435;52.670;13.544;2024-02-26T01:34:05;10.43;;;7.50;;
21334;SDS011;69435;52.670;13.544;2024-02-26T01:36:52;8.57;;;6.83;;
21334;SDS011;69435;52.670;13.544;2024-02-26T01:39:38;7.83;;;6.97;;
21334;SDS011;69435;52.670;13.544;2024-02-26T01:42:25;7.90;;;6.83;;
21334;SDS011;69435;52.670;13.544;2024-02-26T01:45:13;9.10;;;7.00;;
21334;SDS011;69435;52.670;13.544;2024-02-26T01:48:06;10.57;;;7.20;;
21334;SDS011;69435;52.670;13.544;2024-02-26T01:50:53;8.73;;;7.03;;
21334;SDS011;69435;52.670;13.544;2024-02-26T01:53:39;7.37;;;6.50;;
21334;SDS011;69435;52.670;13.544;2024-02-26T01:56:26;7.27;;;6.53;;
21334;SDS011;69435;52.670;13.544;2024-02-26T01:59:15;10.13;;;7.23;;
21334;SDS011;69435;52.670;13.544;2024-02-26T02:02:03;7.50;;;6.50;;
21334;SDS011;69435;52.670;13.544;2024-02-26T02:04:52;7.67;;;6.97;;
21334;SDS011;69435;52.670;13.544;2024-02-26T02:07:39;10.13;;;6.20;;
21334;SDS011;69435;52.670;13.544;2024-02-26T02:10:26;6.90;;;6.20;;
21334;SDS011;69435;52.670;13.544;2024-02-26T02:13:13;7.87;;;6.17;;
21334;SDS011;69435;52.670;13.544;2024-02-26T02:15:59;7.40;;;6.43;;
21334;SDS011;69435;52.670;13.544;2024-02-26T02:18:45;8.97;;;6.03;;
21334;SDS011;69435;52.670;13.544;2024-02-26T02:21:31;7.80;;;5.37;;
21334;SDS011;69435;52.670;13.544;2024-02-26T02:24:17;6.40;;;5.77;;
21334;SDS011;69435;52.670;13.544;2024-02-26T02:27:04;5.77;;;5.13;;
21334;SDS011;69435;52.670;13.544;2024-02-26T02:29:50;6.40;;;5.67;;
21334;SDS011;69435;52.670;13.544;2024-02-26T02:32:37;7.33;;;5.97;;
21334;SDS011;69435;52.670;13.544;2024-02-26T02:35:26;7.53;;;5.60;;
21334;SDS011;69435;52.670;13.544;2024-02-26T02:38:13;7.30;;;5.43;;
21334;SDS011;69435;52.670;13.544;2024-02-26T02:40:59;6.37;;;5.37;;
21334;SDS011;69435;52.670;13.544;2024-02-26T02:43:45;6.27;;;5.10;;
21334;SDS011;69435;52.670;13.544;2024-02-26T02:46:31;8.37;;;5.73;;
21334;SDS011;69435;52.670;13.544;2024-02-26T02:49:18;6.67;;;5.80;;
21334;SDS011;69435;52.670;13.544;2024-02-26T02:52:05;6.20;;;5.60;;
21334;SDS011;69435;52.670;13.544;2024-02-26T02:54:51;8.07;;;5.13;;
21334;SDS011;69435;52.670;13.544;2024-02-26T02:57:37;7.30;;;5.63;;
21334;SDS011;69435;52.670;13.544;2024-02-26T03:00:26;9.60;;;5.70;;
21334;SDS011;69435;52.670;13.544;2024-02-26T03:03:12;6.03;;;5.20;;
21334;SDS011;69435;52.670;13.544;2024-02-26T03:05:58;5.30;;;4.77;;
21334;SDS011;69435;52.670;13.544;2024-02-26T03:08:44;5.40;;;4.90;;
21334;SDS011;69435;52.670;13.544;2024-02-26T03:11:30;5.33;;;4.83;;
21334;SDS011;69435;52.670;13.544;2024-02-26T03:14:16;5.60;;;5.00;;
21334;SDS011;69435;52.670;13.544;2024-02-26T03:17:02;8.77;;;5.50;;
21334;SDS011;69435;52.670;13.544;2024-02-26T03:19:49;5.30;;;4.80;;
21334;SDS011;69435;52.670;13.544;2024-02-26T03:22:38;6.53;;;5.60;;
21334;SDS011;69435;52.670;13.544;2024-02-26T03:25:25;5.57;;;4.77;;
21334;SDS011;69435;52.670;13.544;2024-02-26T03:28:11;7.87;;;4.93;;
21334;SDS011;69435;52.670;13.544;2024-02-26T03:30:58;5.87;;;5.17;;
21334;SDS011;69435;52.670;13.544;2024-02-26T03:33:45;9.40;;;5.53;;
21334;SDS011;69435;52.670;13.544;2024-02-26T03:36:31;7.33;;;6.00;;
21334;SDS011;69435;52.670;13.544;2024-02-26T03:39:17;6.90;;;5.30;;
21334;SDS011;69435;52.670;13.544;2024-02-26T03:42:03;6.90;;;5.40;;
21334;SDS011;69435;52.670;13.544;2024-02-26T03:44:49;7.83;;;5.63;;
21334;SDS011;69435;52.670;13.544;2024-02-26T03:47:37;5.93;;;5.37;;
21334;SDS011;69435;52.670;13.544;2024-02-26T03:50:26;6.10;;;5.50;;
21334;SDS011;69435;52.670;13.544;2024-02-26T03:53:12;5.47;;;4.97;;
21334;SDS011;69435;52.670;13.544;2024-02-26T03:55:58;5.33;;;4.83;;
21334;SDS011;69435;52.670;13.544;2024-02-26T03:58:49;7.27;;;4.77;;
21334;SDS011;69435;52.670;13.544;2024-02-26T04:01:35;7.23;;;4.33;;
21334;SDS011;69435;52.670;13.544;2024-02-26T04:04:21;5.23;;;4.63;;
21334;SDS011;69435;52.670;13.544;2024-02-26T04:07:07;4.83;;;4.43;;
21334;SDS011;69435;52.670;13.544;2024-02-26T04:09:53;4.33;;;3.93;;
21334;SDS011;69435;52.670;13.544;2024-02-26T04:12:40;5.23;;;4.73;;
21334;SDS011;69435;52.670;13.544;2024-02-26T04:15:27;5.27;;;4.77;;
21334;SDS011;69435;52.670;13.544;2024-02-26T04:18:14;4.90;;;4.40;;
21334;SDS011;69435;52.670;13.544;2024-02-26T04:21:00;5.00;;;4.50;;
21334;SDS011;69435;52.670;13.544;2024-02-26T04:23:46;5.67;;;4.43;;
21334;SDS011;69435;52.670;13.544;2024-02-26T04:26:34;5.07;;;4.57;;
21334;SDS011;69435;52.670;13.544;2024-02-26T04:29:20;10.23;;;4.97;;
21334;SDS011;69435;52.670;13.544;2024-02-26T04:32:06;4.73;;;4.30;;
21334;SDS011;69435;52.670;13.544;2024-02-26T04:34:52;4.63;;;4.20;;
21334;SDS011;69435;52.670;13.544;2024-02-26T04:37:39;4.27;;;3.87;;
21334;SDS011;69435;52.670;13.544;2024-02-26T04:40:25;4.70;;;4.30;;
21334;SDS011;69435;52.670;13.544;2024-02-26T04:43:11;5.03;;;4.53;;
21334;SDS011;69435;52.670;13.544;2024-02-26T04:45:57;5.07;;;4.27;;
21334;SDS011;69435;52.670;13.544;2024-02-26T04:48:43;4.77;;;4.13;;
21334;SDS011;69435;52.670;13.544;2024-02-26T04:51:32;4.03;;;3.67;;
21334;SDS011;69435;52.670;13.544;2024-02-26T04:54:18;4.60;;;4.20;;
21334;SDS011;69435;52.670;13.544;2024-02-26T04:57:04;6.20;;;4.70;;
21334;SDS011;69435;52.670;13.544;2024-02-26T04:59:50;9.10;;;5.10;;
21334;SDS011;69435;52.670;13.544;2024-02-26T05:02:36;5.63;;;4.33;;
21334;SDS011;69435;52.670;13.544;2024-02-26T05:05:23;4.87;;;4.40;;
21334;SDS011;69435;52.670;13.544;2024-02-26T05:08:10;4.63;;;4.20;;
21334;SDS011;69435;52.670;13.544;2024-02-26T05:10:56;4.97;;;4.37;;
21334;SDS011;69435;52.670;13.544;2024-02-26T05:13:42;4.93;;;4.53;;
21334;SDS011;69435;52.670;13.544;2024-02-26T05:16:30;5.30;;;4.40;;
21334;SDS011;69435;52.670;13.544;2024-02-26T05:19:16;5.30;;;4.80;;
21334;SDS011;69435;52.670;13.544;2024-02-26T05:22:03;5.10;;;4.67;;
21334;SDS011;69435;52.670;13.544;2024-02-26T05:24:49;5.57;;;4.80;;
21334;SDS011;69435;52.670;13.544;2024-02-26T05:27:36;7.07;;;5.20;;
21334;SDS011;69435;52.670;13.544;2024-02-26T05:30:22;8.33;;;4.70;;
21334;SDS011;69435;52.670;13.544;2024-02-26T05:33:08;7.57;;;4.63;;
21334;SDS011;69435;52.670;13.544;2024-02-26T05:35:54;4.57;;;4.17;;
21334;SDS011;69435;52.670;13.544;2024-02-26T05:38:40;6.20;;;5.27;;
21334;SDS011;69435;52.670;13.544;2024-02-26T05:41:26;7.43;;;5.77;;
21334;SDS011;69435;52.670;13.544;2024-02-26T05:44:12;7.07;;;5.53;;
21334;SDS011;69435;52.670;13.544;2024-02-26T05:46:58;6.57;;;4.77;;
21334;SDS011;69435;52.670;13.544;2024-02-26T05:49:44;4.93;;;4.40;;
21334;SDS011;69435;52.670;13.544;2024-02-26T05:52:30;7.40;;;5.43;;
21334;SDS011;69435;52.670;13.544;2024-02-26T05:55:17;7.40;;;5.77;;
21334;SDS011;69435;52.670;13.544;2024-02-26T05:58:03;5.80;;;5.30;;
21334;SDS011;69435;52.670;13.544;2024-02-26T06:00:49;13.93;;;5.67;;
21334;SDS011;69435;52.670;13.544;2024-02-26T06:03:35;6.47;;;4.90;;
21334;SDS011;69435;52.670;13.544;2024-02-26T06:06:21;10.10;;;6.07;;
21334;SDS011;69435;52.670;13.544;2024-02-26T06:09:08;9.50;;;6.63;;
21334;SDS011;69435;52.670;13.544;2024-02-26T06:11:55;6.33;;;5.47;;
21334;SDS011;69435;52.670;13.544;2024-02-26T06:14:42;6.97;;;6.23;;
21334;SDS011;69435;52.670;13.544;2024-02-26T06:17:28;9.33;;;7.23;;
21334;SDS011;69435;52.670;13.544;2024-02-26T06:20:14;16.17;;;7.70;;
21334;SDS011;69435;52.670;13.544;2024-02-26T06:23:00;15.43;;;8.47;;
21334;SDS011;69435;52.670;13.544;2024-02-26T06:25:47;13.87;;;7.33;;
21334;SDS011;69435;52.670;13.544;2024-02-26T06:28:33;11.87;;;7.43;;
21334;SDS011;69435;52.670;13.544;2024-02-26T06:31:21;20.27;;;8.00;;
21334;SDS011;69435;52.670;13.544;2024-02-26T06:34:08;13.57;;;8.57;;
21334;SDS011;69435;52.670;13.544;2024-02-26T06:36:54;9.23;;;7.23;;
21334;SDS011;69435;52.670;13.544;2024-02-26T06:39:40;10.87;;;8.03;;
21334;SDS011;69435;52.670;13.544;2024-02-26T06:42:27;14.80;;;8.70;;
21334;SDS011;69435;52.670;13.544;2024-02-26T06:45:14;18.67;;;8.60;;
21334;SDS011;69435;52.670;13.544;2024-02-26T06:48:01;14.60;;;9.47;;
21334;SDS011;69435;52.670;13.544;2024-02-26T06:50:47;14.37;;;9.70;;
21334;SDS011;69435;52.670;13.544;2024-02-26T06:53:33;12.33;;;8.90;;
21334;SDS011;69435;52.670;13.544;2024-02-26T06:56:20;17.60;;;10.33;;
21334;SDS011;69435;52.670;13.544;2024-02-26T06:59:06;20.30;;;11.27;;
21334;SDS011;69435;52.670;13.544;2024-02-26T07:01:53;21.70;;;10.53;;
21334;SDS011;69435;52.670;13.544;2024-02-26T07:04:40;20.73;;;10.60;;
21334;SDS011;69435;52.670;13.544;2024-02-26T07:07:26;21.30;;;11.40;;
21334;SDS011;69435;52.670;13.544;2024-02-26T07:10:12;20.57;;;11.97;;
21334;SDS011;69435;52.670;13.544;2024-02-26T07:12:58;21.07;;;11.33;;
21334;SDS011;69435;52.670;13.544;2024-02-26T07:15:44;18.47;;;12.13;;
21334;SDS011;69435;52.670;13.544;2024-02-26T07:18:30;23.97;;;13.20;;
21334;SDS011;69435;52.670;13.544;2024-02-26T07:21:16;29.50;;;15.43;;
21334;SDS011;69435;52.670;13.544;2024-02-26T07:24:02;30.47;;;16.93;;
21334;SDS011;69435;52.670;13.544;2024-02-26T07:26:48;31.53;;;18.07;;
21334;SDS011;69435;52.670;13.544;2024-02-26T07:29:34;23.00;;;13.70;;
21334;SDS011;69435;52.670;13.544;2024-02-26T07:32:20;15.93;;;11.47;;
21334;SDS011;69435;52.670;13.544;2024-02-26T07:35:07;12.83;;;8.13;;
21334;SDS011;69435;52.670;13.544;2024-02-26T07:37:53;10.40;;;7.40;;
21334;SDS011;69435;52.670;13.544;2024-02-26T07:40:39;7.83;;;6.53;;
21334;SDS011;69435;52.670;13.544;2024-02-26T07:43:26;7.43;;;6.37;;
21334;SDS011;69435;52.670;13.544;2024-02-26T07:46:12;10.17;;;6.67;;
21334;SDS011;69435;52.670;13.544;2024-02-26T07:48:58;8.93;;;6.67;;
21334;SDS011;69435;52.670;13.544;2024-02-26T07:51:44;8.33;;;6.70;;
21334;SDS011;69435;52.670;13.544;2024-02-26T07:54:30;7.37;;;6.67;;
21334;SDS011;69435;52.670;13.544;2024-02-26T07:57:16;6.87;;;6.20;;
21334;SDS011;69435;52.670;13.544;2024-02-26T08:00:03;8.30;;;7.03;;
21334;SDS011;69435;52.670;13.544;2024-02-26T08:02:52;8.53;;;7.63;;
21334;SDS011;69435;52.670;13.544;2024-02-26T08:05:38;8.53;;;7.03;;
21334;SDS011;69435;52.670;13.544;2024-02-26T08:08:25;8.87;;;7.27;;
21334;SDS011;69435;52.670;13.544;2024-02-26T08:11:11;9.23;;;6.50;;
21334;SDS011;69435;52.670;13.544;2024-02-26T08:14:01;10.30;;;7.53;;
21334;SDS011;69435;52.670;13.544;2024-02-26T08:16:47;9.67;;;7.33;;
21334;SDS011;69435;52.670;13.544;2024-02-26T08:19:34;8.50;;;7.70;;
21334;SDS011;69435;52.670;13.544;2024-02-26T08:22:21;9.57;;;7.80;;
21334;SDS011;69435;52.670;13.544;2024-02-26T08:25:07;8.07;;;7.27;;
21334;SDS011;69435;52.670;13.544;2024-02-26T08:27:55;8.73;;;7.83;;
21334;SDS011;69435;52.670;13.544;2024-02-26T08:30:41;8.13;;;7.33;;
21334;SDS011;69435;52.670;13.544;2024-02-26T08:33:27;8.33;;;7.53;;
21334;SDS011;69435;52.670;13.544;2024-02-26T08:36:13;9.20;;;7.70;;
21334;SDS011;69435;52.670;13.544;2024-02-26T08:38:59;7.50;;;6.70;;
21334;SDS011;69435;52.670;13.544;2024-02-26T08:41:46;11.50;;;7.10;;
21334;SDS011;69435;52.670;13.544;2024-02-26T08:44:32;11.00;;;7.87;;
21334;SDS011;69435;52.670;13.544;2024-02-26T08:47:18;8.30;;;7.37;;
21334;SDS011;69435;52.670;13.544;2024-02-26T08:50:04;8.57;;;7.50;;
21334;SDS011;69435;52.670;13.544;2024-02-26T08:52:51;9.10;;;8.07;;
21334;SDS011;69435;52.670;13.544;2024-02-26T08:55:38;8.97;;;7.83;;
21334;SDS011;69435;52.670;13.544;2024-02-26T08:58:24;10.80;;;8.40;;
21334;SDS011;69435;52.670;13.544;2024-02-26T09:01:11;9.23;;;8.10;;
21334;SDS011;69435;52.670;13.544;2024-02-26T09:03:57;9.47;;;7.80;;
21334;SDS011;69435;52.670;13.544;2024-02-26T09:06:43;10.70;;;7.77;;
21334;SDS011;69435;52.670;13.544;2024-02-26T09:09:29;8.80;;;8.00;;
21334;SDS011;69435;52.670;13.544;2024-02-26T09:12:15;8.20;;;7.40;;
21334;SDS011;69435;52.670;13.544;2024-02-26T09:15:02;8.97;;;8.07;;
21334;SDS011;69435;52.670;13.544;2024-02-26T09:17:48;9.03;;;8.23;;
21334;SDS011;69435;52.670;13.544;2024-02-26T09:20:35;8.40;;;7.60;;
21334;SDS011;69435;52.670;13.544;2024-02-26T09:23:21;10.50;;;8.70;;
21334;SDS011;69435;52.670;13.544;2024-02-26T09:26:07;9.13;;;8.23;;
21334;SDS011;69435;52.670;13.544;2024-02-26T09:28:54;9.83;;;8.83;;
21334;SDS011;69435;52.670;13.544;2024-02-26T09:31:40;11.23;;;8.37;;
21334;SDS011;69435;52.670;13.544;2024-02-26T09:34:26;10.23;;;9.23;;
21334;SDS011;69435;52.670;13.544;2024-02-26T09:37:12;9.70;;;8.70;;
21334;SDS011;69435;52.670;13.544;2024-02-26T09:39:58;10.43;;;9.40;;
21334;SDS011;69435;52.670;13.544;2024-02-26T09:42:45;11.30;;;9.23;;
21334;SDS011;69435;52.670;13.544;2024-02-26T09:45:32;13.60;;;9.53;;
21334;SDS011;69435;52.670;13.544;2024-02-26T09:48:19;10.77;;;9.40;;
21334;SDS011;69435;52.670;13.544;2024-02-26T09:51:07;12.30;;;9.77;;
21334;SDS011;69435;52.670;13.544;2024-02-26T09:53:57;13.93;;;10.50;;
21334;SDS011;69435;52.670;13.544;2024-02-26T09:56:48;10.53;;;9.43;;
21334;SDS011;69435;52.670;13.544;2024-02-26T09:59:39;10.97;;;9.87;;
21334;SDS011;69435;52.670;13.544;2024-02-26T10:02:26;13.17;;;10.20;;
21334;SDS011;69435;52.670;13.544;2024-02-26T10:05:17;10.60;;;9.53;;
21334;SDS011;69435;52.670;13.544;2024-02-26T10:08:06;12.37;;;10.03;;
21334;SDS011;69435;52.670;13.544;2024-02-26T10:10:56;11.93;;;9.50;;
21334;SDS011;69435;52.670;13.544;2024-02-26T10:13:42;14.27;;;10.90;;
21334;SDS011;69435;52.670;13.544;2024-02-26T10:16:28;13.53;;;11.07;;
21334;SDS011;69435;52.670;13.544;2024-02-26T10:19:24;12.40;;;10.63;;
21334;SDS011;69435;52.670;13.544;2024-02-26T10:22:14;14.83;;;11.33;;
21334;SDS011;69435;52.670;13.544;2024-02-26T10:25:00;12.00;;;10.33;;
21334;SDS011;69435;52.670;13.544;2024-02-26T10:27:47;13.07;;;11.00;;
21334;SDS011;69435;52.670;13.544;2024-02-26T10:30:36;13.70;;;11.03;;
21334;SDS011;69435;52.670;13.544;2024-02-26T10:33:22;12.57;;;11.13;;
21334;SDS011;69435;52.670;13.544;2024-02-26T10:36:10;13.40;;;12.00;;
21334;SDS011;69435;52.670;13.544;2024-02-26T10:38:57;12.30;;;11.07;;
21334;SDS011;69435;52.670;13.544;2024-02-26T10:41:47;12.07;;;10.57;;
21334;SDS011;69435;52.670;13.544;2024-02-26T10:44:33;13.57;;;10.50;;
21334;SDS011;69435;52.670;13.544;2024-02-26T10:47:19;12.10;;;10.73;;
21334;SDS011;69435;52.670;13.544;2024-02-26T10:50:07;13.47;;;10.73;;
21334;SDS011;69435;52.670;13.544;2024-02-26T10:52:54;15.13;;;9.90;;
21334;SDS011;69435;52.670;13.544;2024-02-26T10:55:41;14.37;;;10.33;;
21334;SDS011;69435;52.670;13.544;2024-02-26T10:58:38;12.90;;;9.90;;
21334;SDS011;69435;52.670;13.544;2024-02-26T11:01:25;11.63;;;10.43;;
21334;SDS011;69435;52.670;13.544;2024-02-26T11:04:17;12.20;;;10.33;;
21334;SDS011;69435;52.670;13.544;2024-02-26T11:07:05;13.03;;;10.23;;
21334;SDS011;69435;52.670;13.544;2024-02-26T11:09:54;13.87;;;9.83;;
21334;SDS011;69435;52.670;13.544;2024-02-26T11:12:42;10.53;;;9.43;;
21334;SDS011;69435;52.670;13.544;2024-02-26T11:15:29;11.50;;;8.97;;
21334;SDS011;69435;52.670;13.544;2024-02-26T11:18:19;9.83;;;8.87;;
21334;SDS011;69435;52.670;13.544;2024-02-26T11:21:10;12.97;;;9.33;;
21334;SDS011;69435;52.670;13.544;2024-02-26T11:23:58;10.50;;;9.23;;
21334;SDS011;69435;52.670;13.544;2024-02-26T11:29:38;9.20;;;8.40;;
21334;SDS011;69435;52.670;13.544;2024-02-26T11:32:29;9.23;;;8.33;;
21334;SDS011;69435;52.670;13.544;2024-02-26T11:35:16;12.20;;;9.33;;
21334;SDS011;69435;52.670;13.544;2024-02-26T11:38:04;9.90;;;8.27;;
21334;SDS011;69435;52.670;13.544;2024-02-26T11:40:52;9.20;;;7.53;;
21334;SDS011;69435;52.670;13.544;2024-02-26T11:43:52;8.93;;;7.80;;
21334;SDS011;69435;52.670;13.544;2024-02-26T11:46:46;8.30;;;7.50;;
21334;SDS011;69435;52.670;13.544;2024-02-26T11:49:34;7.57;;;6.73;;
21334;SDS011;69435;52.670;13.544;2024-02-26T11:52:20;8.10;;;6.17;;
21334;SDS011;69435;52.670;13.544;2024-02-26T11:55:07;6.30;;;5.67;;
21334;SDS011;69435;52.670;13.544;2024-02-26T11:57:54;5.70;;;5.20;;
21334;SDS011;69435;52.670;13.544;2024-02-26T12:00:41;8.43;;;6.20;;
21334;SDS011;69435;52.670;13.544;2024-02-26T12:03:28;7.23;;;6.03;;
21334;SDS011;69435;52.670;13.544;2024-02-26T12:06:15;5.70;;;5.20;;
21334;SDS011;69435;52.670;13.544;2024-02-26T12:09:04;6.23;;;5.47;;
21334;SDS011;69435;52.670;13.544;2024-02-26T12:11:51;5.43;;;4.87;;
21334;SDS011;69435;52.670;13.544;2024-02-26T12:14:40;5.20;;;4.80;;
21334;SDS011;69435;52.670;13.544;2024-02-26T12:17:37;5.07;;;4.57;;
21334;SDS011;69435;52.670;13.544;2024-02-26T12:20:24;4.60;;;4.17;;
21334;SDS011;69435;52.670;13.544;2024-02-26T12:23:14;5.27;;;4.70;;
21334;SDS011;69435;52.670;13.544;2024-02-26T12:26:03;5.03;;;4.53;;
21334;SDS011;69435;52.670;13.544;2024-02-26T12:28:49;4.60;;;4.20;;
21334;SDS011;69435;52.670;13.544;2024-02-26T12:31:35;4.37;;;4.07;;
21334;SDS011;69435;52.670;13.544;2024-02-26T12:34:22;4.30;;;3.83;;
21334;SDS011;69435;52.670;13.544;2024-02-26T12:37:08;3.70;;;3.40;;
21334;SDS011;69435;52.670;13.544;2024-02-26T12:39:55;4.00;;;3.70;;
21334;SDS011;69435;52.670;13.544;2024-02-26T12:42:41;3.57;;;3.10;;
21334;SDS011;69435;52.670;13.544;2024-02-26T12:45:28;4.20;;;3.60;;
21334;SDS011;69435;52.670;13.544;2024-02-26T12:48:14;4.13;;;3.73;;
21334;SDS011;69435;52.670;13.544;2024-02-26T12:51:00;3.70;;;3.40;;
21334;SDS011;69435;52.670;13.544;2024-02-26T12:53:46;3.83;;;3.07;;
21334;SDS011;69435;52.670;13.544;2024-02-26T12:56:35;4.67;;;3.30;;
21334;SDS011;69435;52.670;13.544;2024-02-26T12:59:21;3.70;;;3.30;;
21334;SDS011;69435;52.670;13.544;2024-02-26T13:02:07;3.93;;;3.57;;
21334;SDS011;69435;52.670;13.544;2024-02-26T13:04:54;3.37;;;3.07;;
21334;SDS011;69435;52.670;13.544;2024-02-26T13:07:42;2.77;;;2.57;;
21334;SDS011;69435;52.670;13.544;2024-02-26T13:10:29;2.87;;;2.67;;
21334;SDS011;69435;52.670;13.544;2024-02-26T13:13:20;3.20;;;2.90;;
21334;SDS011;69435;52.670;13.544;2024-02-26T13:16:10;3.30;;;3.00;;
21334;SDS011;69435;52.670;13.544;2024-02-26T13:19:09;4.53;;;3.13;;
21334;SDS011;69435;52.670;13.544;2024-02-26T13:21:56;4.53;;;3.33;;
21334;SDS011;69435;52.670;13.544;2024-02-26T13:24:55;3.60;;;3.20;;
21334;SDS011;69435;52.670;13.544;2024-02-26T13:27:42;3.47;;;3.17;;
21334;SDS011;69435;52.670;13.544;2024-02-26T13:30:28;3.80;;;3.50;;
21334;SDS011;69435;52.670;13.544;2024-02-26T13:33:14;3.43;;;3.13;;
21334;SDS011;69435;52.670;13.544;2024-02-26T13:36:01;3.33;;;3.03;;
21334;SDS011;69435;52.670;13.544;2024-02-26T13:38:55;3.73;;;3.43;;
21334;SDS011;69435;52.670;13.544;2024-02-26T13:41:41;4.10;;;3.70;;
21334;SDS011;69435;52.670;13.544;2024-02-26T13:44:29;4.30;;;3.83;;
21334;SDS011;69435;52.670;13.544;2024-02-26T13:47:15;4.10;;;3.73;;
21334;SDS011;69435;52.670;13.544;2024-02-26T13:50:01;4.00;;;3.60;;
21334;SDS011;69435;52.670;13.544;2024-02-26T13:52:48;4.53;;;4.13;;
21334;SDS011;69435;52.670;13.544;2024-02-26T13:55:39;4.17;;;3.77;;
21334;SDS011;69435;52.670;13.544;2024-02-26T13:58:28;7.90;;;4.43;;
21334;SDS011;69435;52.670;13.544;2024-02-26T14:01:15;5.67;;;4.33;;
21334;SDS011;69435;52.670;13.544;2024-02-26T14:04:01;6.50;;;3.97;;
21334;SDS011;69435;52.670;13.544;2024-02-26T14:06:47;4.37;;;3.80;;
21334;SDS011;69435;52.670;13.544;2024-02-26T14:09:33;4.80;;;4.23;;
21334;SDS011;69435;52.670;13.544;2024-02-26T14:12:19;4.40;;;4.00;;
21334;SDS011;69435;52.670;13.544;2024-02-26T14:15:06;6.97;;;4.90;;
21334;SDS011;69435;52.670;13.544;2024-02-26T14:17:55;6.07;;;4.90;;
21334;SDS011;69435;52.670;13.544;2024-02-26T14:20:44;6.97;;;4.03;;
21334;SDS011;69435;52.670;13.544;2024-02-26T14:23:30;6.20;;;4.87;;
21334;SDS011;69435;52.670;13.544;2024-02-26T14:26:16;4.80;;;4.30;;
21334;SDS011;69435;52.670;13.544;2024-02-26T14:29:02;6.50;;;5.03;;
21334;SDS011;69435;52.670;13.544;2024-02-26T14:31:48;6.50;;;4.93;;
21334;SDS011;69435;52.670;13.544;2024-02-26T14:34:34;6.47;;;4.53;;
21334;SDS011;69435;52.670;13.544;2024-02-26T14:37:21;5.30;;;4.90;;
21334;SDS011;69435;52.670;13.544;2024-02-26T14:40:07;6.30;;;5.70;;
21334;SDS011;69435;52.670;13.544;2024-02-26T14:42:54;5.70;;;5.20;;
21334;SDS011;69435;52.670;13.544;2024-02-26T14:45:40;6.13;;;5.43;;
21334;SDS011;69435;52.670;13.544;2024-02-26T14:48:26;6.17;;;5.57;;
21334;SDS011;69435;52.670;13.544;2024-02-26T14:51:14;5.90;;;5.30;;
21334;SDS011;69435;52.670;13.544;2024-02-26T14:54:00;6.47;;;5.87;;
21334;SDS011;69435;52.670;13.544;2024-02-26T14:56:47;10.00;;;7.30;;
21334;SDS011;69435;52.670;13.544;2024-02-26T14:59:34;8.77;;;6.70;;
21334;SDS011;69435;52.670;13.544;2024-02-26T15:02:22;8.77;;;6.97;;
21334;SDS011;69435;52.670;13.544;2024-02-26T15:05:08;8.70;;;6.30;;
21334;SDS011;69435;52.670;13.544;2024-02-26T15:07:56;6.63;;;5.90;;
21334;SDS011;69435;52.670;13.544;2024-02-26T15:10:42;10.27;;;6.90;;
21334;SDS011;69435;52.670;13.544;2024-02-26T15:13:34;7.13;;;6.47;;
21334;SDS011;69435;52.670;13.544;2024-02-26T15:16:21;8.10;;;7.13;;
21334;SDS011;69435;52.670;13.544;2024-02-26T15:19:07;8.10;;;7.20;;
21334;SDS011;69435;52.670;13.544;2024-02-26T15:21:53;9.57;;;6.67;;
21334;SDS011;69435;52.670;13.544;2024-02-26T15:24:39;10.23;;;6.73;;
21334;SDS011;69435;52.670;13.544;2024-02-26T15:27:25;9.90;;;7.37;;
21334;SDS011;69435;52.670;13.544;2024-02-26T15:30:11;8.73;;;6.77;;
21334;SDS011;69435;52.670;13.544;2024-02-26T15:32:58;7.67;;;6.90;;
21334;SDS011;69435;52.670;13.544;2024-02-26T15:35:45;7.93;;;7.17;;
21334;SDS011;69435;52.670;13.544;2024-02-26T15:38:31;7.17;;;6.47;;
21334;SDS011;69435;52.670;13.544;2024-02-26T15:41:18;9.70;;;6.97;;
21334;SDS011;69435;52.670;13.544;2024-02-26T15:44:04;8.37;;;6.57;;
21334;SDS011;69435;52.670;13.544;2024-02-26T15:46:51;7.77;;;7.07;;
21334;SDS011;69435;52.670;13.544;2024-02-26T15:49:37;9.00;;;7.70;;
21334;SDS011;69435;52.670;13.544;2024-02-26T15:52:24;8.97;;;7.17;;
21334;SDS011;69435;52.670;13.544;2024-02-26T15:55:11;10.07;;;7.50;;
21334;SDS011;69435;52.670;13.544;2024-02-26T15:57:58;10.73;;;7.87;;
21334;SDS011;69435;52.670;13.544;2024-02-26T16:00:44;9.90;;;7.30;;
21334;SDS011;69435;52.670;13.544;2024-02-26T16:03:30;8.73;;;7.83;;
21334;SDS011;69435;52.670;13.544;2024-02-26T16:06:25;8.97;;;7.60;;
21334;SDS011;69435;52.670;13.544;2024-02-26T16:09:20;9.50;;;8.20;;
21334;SDS011;69435;52.670;13.544;2024-02-26T16:12:08;10.20;;;8.33;;
21334;SDS011;69435;52.670;13.544;2024-02-26T16:15:04;10.43;;;8.20;;
21334;SDS011;69435;52.670;13.544;2024-02-26T16:17:52;11.30;;;8.67;;
21334;SDS011;69435;52.670;13.544;2024-02-26T16:20:41;9.30;;;7.77;;
21334;SDS011;69435;52.670;13.544;2024-02-26T16:23:27;10.77;;;8.30;;
21334;SDS011;69435;52.670;13.544;2024-02-26T16:26:13;12.93;;;9.17;;
21334;SDS011;69435;52.670;13.544;2024-02-26T16:28:59;13.17;;;9.40;;